Time;durP1;ratioP1;P1;durP2;ratioP2;P2;SDS_P1;SDS_P2;PMS_P1;PMS_P2;Temp;Humidity;BMP_temperature;BMP_pressure;BME280_temperature;BME280_humidity;BME280_pressure;Samples;Min_cycle;Max_cycle;Signal;HPM_P1;HPM_P2
2023/09/10 00:01:52;;;;;;;7.75;4.57;;;;;;;16.96;100.00;100806.03;5178499;28;20524;-76
2023/09/10 00:04:22;;;;;;;7.80;5.07;;;;;;;16.84;100.00;100804.09;5180668;28;20033;-77
2023/09/10 00:06:53;;;;;;;8.93;5.40;;;;;;;16.76;100.00;100803.66;5176950;28;20033;-77
2023/09/10 00:09:23;;;;;;;10.35;5.18;;;;;;;16.73;100.00;100801.19;5162028;28;20049;-75
2023/09/10 00:11:53;;;;;;;9.48;5.28;;;;;;;16.70;100.00;100803.19;5178248;28;20505;-77
2023/09/10 00:14:24;;;;;;;8.55;4.75;;;;;;;16.67;100.00;100798.91;5179771;28;20116;-77
2023/09/10 00:16:54;;;;;;;11.63;5.00;;;;;;;16.84;100.00;100798.81;5178037;28;20037;-77
2023/09/10 00:19:24;;;;;;;8.85;5.10;;;;;;;16.80;100.00;100800.75;5178811;28;20034;-76
2023/09/10 00:21:55;;;;;;;7.63;4.95;;;;;;;16.72;100.00;100804.78;5177364;28;20112;-77
2023/09/10 00:24:25;;;;;;;8.05;4.88;;;;;;;16.84;100.00;100804.09;5178895;28;20037;-77
2023/09/10 00:26:55;;;;;;;8.18;5.20;;;;;;;16.79;100.00;100801.72;5177402;28;20079;-76
2023/09/10 00:29:25;;;;;;;7.72;4.75;;;;;;;16.57;100.00;100794.25;5177086;28;20028;-76
2023/09/10 00:31:56;;;;;;;11.40;4.72;;;;;;;16.51;100.00;100789.31;5178324;28;20037;-76
2023/09/10 00:34:30;;;;;;;8.32;5.32;;;;;;;16.44;100.00;100787.94;5176161;28;20037;-74
2023/09/10 00:37:01;;;;;;;9.57;5.28;;;;;;;16.37;100.00;100798.00;5178100;28;20117;-75
2023/09/10 00:39:31;;;;;;;9.63;5.25;;;;;;;16.38;100.00;100797.06;5176992;28;20464;-78
2023/09/10 00:42:01;;;;;;;9.75;5.18;;;;;;;16.47;100.00;100801.84;5178055;28;20336;-76
2023/09/10 00:44:31;;;;;;;9.95;5.15;;;;;;;16.31;100.00;100800.09;5171779;23;20503;-72
2023/09/10 00:47:03;;;;;;;9.07;5.30;;;;;;;16.45;100.00;100802.84;5194124;28;20071;-72
2023/09/10 00:49:35;;;;;;;8.18;4.72;;;;;;;16.36;100.00;100804.22;5194824;28;20036;-72
2023/09/10 00:52:05;;;;;;;7.05;5.03;;;;;;;16.37;100.00;100803.28;5176281;28;20386;-72
2023/09/10 00:54:37;;;;;;;10.10;4.90;;;;;;;16.36;100.00;100803.38;5178412;28;20029;-71
2023/09/10 00:57:08;;;;;;;9.48;5.38;;;;;;;16.20;100.00;100798.03;5193043;28;20036;-72
2023/09/10 00:59:38;;;;;;;8.75;5.05;;;;;;;16.31;100.00;100797.44;5194501;28;20021;-72
2023/09/10 01:02:09;;;;;;;8.73;4.82;;;;;;;16.14;100.00;100797.53;5160862;28;20041;-72
2023/09/10 01:04:40;;;;;;;9.60;5.18;;;;;;;16.08;100.00;100798.69;5193305;28;20152;-70
2023/09/10 01:07:11;;;;;;;11.43;5.30;;;;;;;16.08;100.00;100798.69;5180257;28;20044;-72
2023/09/10 01:09:41;;;;;;;11.60;5.45;;;;;;;15.99;100.00;100798.34;5194717;28;20029;-72
2023/09/10 01:12:35;;;;;;;14.48;6.75;;;;;;;16.13;100.00;100804.59;5194653;28;20029;-71
2023/09/10 01:15:12;;;;;;;14.82;6.82;;;;;;;16.04;100.00;100794.53;5177941;28;20049;-72
2023/09/10 01:18:00;;;;;;;9.90;5.72;;;;;;;16.12;100.00;100804.66;5195469;28;20057;-72
2023/09/10 01:20:31;;;;;;;9.68;5.50;;;;;;;16.15;100.00;100802.72;5189332;28;20049;-72
2023/09/10 01:23:04;;;;;;;7.85;4.90;;;;;;;16.16;100.00;100801.78;5173946;28;20072;-72
2023/09/10 01:25:35;;;;;;;7.32;5.10;;;;;;;16.17;100.00;100800.84;5173487;28;20113;-72
2023/09/10 01:28:05;;;;;;;9.18;5.75;;;;;;;16.03;100.00;100798.09;5177869;28;20025;-71
2023/09/10 01:30:36;;;;;;;10.15;5.30;;;;;;;15.89;100.00;100803.28;5177754;28;20030;-70
2023/09/10 01:33:23;;;;;;;12.55;5.40;;;;;;;16.03;100.00;100805.19;5177652;28;20479;-71
2023/09/10 01:36:07;;;;;;;12.27;5.88;;;;;;;15.92;100.00;100797.84;5185551;28;20041;-72
2023/09/10 01:38:41;;;;;;;20.63;12.20;;;;;;;16.01;100.00;100802.63;5202602;28;20025;-72
2023/09/10 01:41:19;;;;;;;15.70;8.25;;;;;;;16.07;100.00;100794.38;5200595;28;20029;-72
2023/09/10 01:43:51;;;;;;;14.35;7.22;;;;;;;15.99;100.00;100798.34;5201974;28;20075;-72
2023/09/10 01:46:24;;;;;;;11.82;5.53;;;;;;;15.97;100.00;100790.53;5198211;28;20025;-72
2023/09/10 01:48:55;;;;;;;10.13;5.70;;;;;;;15.88;100.00;100790.19;5190034;28;20559;-72
2023/09/10 01:51:25;;;;;;;11.73;5.25;;;;;;;15.82;100.00;100796.63;5194311;28;20141;-72
2023/09/10 01:53:55;;;;;;;9.65;5.32;;;;;;;15.88;100.00;100796.28;5196376;28;20565;-72
2023/09/10 01:56:26;;;;;;;8.43;4.85;;;;;;;15.85;100.00;100791.19;5194988;28;20028;-72
2023/09/10 01:58:56;;;;;;;8.90;5.35;;;;;;;15.89;100.00;100797.16;5194807;28;20029;-73
2023/09/10 02:01:26;;;;;;;6.30;4.63;;;;;;;15.87;100.00;100791.97;5193650;28;20375;-72
2023/09/10 02:03:56;;;;;;;8.98;5.07;;;;;;;15.83;100.00;100793.06;5194336;28;20034;-72
2023/09/10 02:06:27;;;;;;;9.07;5.35;;;;;;;15.79;100.00;100795.94;5181110;28;20056;-72
2023/09/10 02:08:57;;;;;;;8.25;5.50;;;;;;;15.78;100.00;100792.47;5199512;28;20502;-72
2023/09/10 02:11:27;;;;;;;9.23;5.40;;;;;;;15.70;100.00;100797.28;5194576;28;20025;-71
2023/09/10 02:13:58;;;;;;;9.00;5.50;;;;;;;15.71;100.00;100803.41;5198663;28;20029;-72
2023/09/10 02:16:28;;;;;;;7.55;4.95;;;;;;;15.96;100.00;100811.69;5198034;28;20033;-70
2023/09/10 02:18:58;;;;;;;10.65;5.28;;;;;;;15.79;100.00;100804.72;5184781;28;20180;-73
2023/09/10 02:21:29;;;;;;;9.48;4.85;;;;;;;15.93;100.00;100815.38;5198530;28;20033;-72
2023/09/10 02:24:00;;;;;;;9.25;5.57;;;;;;;15.98;100.00;100815.09;5200702;28;20135;-72
2023/09/10 02:26:30;;;;;;;9.25;5.07;;;;;;;15.81;100.00;100808.13;5197525;28;20032;-72
2023/09/10 02:29:00;;;;;;;8.90;5.10;;;;;;;15.99;100.00;100799.22;5198765;28;20033;-72
2023/09/10 02:31:31;;;;;;;9.27;5.43;;;;;;;15.86;100.00;100806.06;5196981;28;20048;-72
2023/09/10 02:34:01;;;;;;;9.32;4.47;;;;;;;15.94;100.00;100806.53;5199151;28;20478;-72
2023/09/10 02:36:31;;;;;;;8.57;4.90;;;;;;;15.82;100.00;100809.81;5197739;28;20025;-72
2023/09/10 02:39:02;;;;;;;7.45;4.13;;;;;;;15.89;100.00;100819.09;5180541;28;20018;-71
2023/09/10 02:41:33;;;;;;;10.05;4.72;;;;;;;15.67;100.00;100829.06;5196945;28;20021;-72
2023/09/10 02:44:03;;;;;;;7.70;4.80;;;;;;;15.93;100.00;100823.28;5182756;28;20671;-72
2023/09/10 02:46:34;;;;;;;8.20;4.47;;;;;;;15.70;100.00;100822.78;5179552;28;20121;-72
2023/09/10 02:49:04;;;;;;;7.45;4.45;;;;;;;15.70;100.00;100821.00;5198915;28;20030;-72
2023/09/10 02:51:34;;;;;;;10.05;4.70;;;;;;;15.65;100.00;100827.44;5197139;28;20029;-72
2023/09/10 02:54:05;;;;;;;7.78;4.63;;;;;;;15.80;100.00;100816.97;5199141;28;20374;-72
2023/09/10 02:56:35;;;;;;;10.52;5.10;;;;;;;15.69;100.00;100829.84;5197847;28;20336;-72
2023/09/10 02:59:05;;;;;;;8.77;4.97;;;;;;;15.48;100.00;100830.94;5199316;28;20471;-72
2023/09/10 03:01:36;;;;;;;8.15;4.60;;;;;;;15.59;100.00;100826.00;5197293;28;20030;-72
2023/09/10 03:04:06;;;;;;;9.40;4.55;;;;;;;15.52;100.00;100832.50;5181161;28;20398;-72
2023/09/10 03:06:36;;;;;;;9.40;4.90;;;;;;;15.45;100.00;100824.97;5183833;28;20410;-71
2023/09/10 03:09:06;;;;;;;6.32;4.18;;;;;;;15.50;100.00;100826.44;5198596;28;20091;-72
2023/09/10 03:11:38;;;;;;;8.07;4.95;;;;;;;15.57;100.00;100835.72;5178208;28;20649;-71
2023/09/10 03:14:09;;;;;;;8.80;4.53;;;;;;;15.56;100.00;100826.13;5198747;28;20124;-72
2023/09/10 03:16:40;;;;;;;11.32;4.60;;;;;;;15.55;100.00;100828.84;5197195;28;20116;-72
2023/09/10 03:19:10;;;;;;;7.03;4.68;;;;;;;15.62;100.00;100824.97;5197933;28;20035;-72
2023/09/10 03:21:41;;;;;;;6.30;4.43;;;;;;;15.54;100.00;100827.16;5195341;28;20506;-72
2023/09/10 03:24:12;;;;;;;10.80;5.43;;;;;;;15.59;100.00;100818.09;5198692;28;20055;-72
2023/09/10 03:26:42;;;;;;;10.10;5.03;;;;;;;15.40;100.00;100813.84;5196885;28;20109;-72
2023/09/10 03:29:13;;;;;;;8.20;5.03;;;;;;;15.51;100.00;100820.25;5198577;28;20689;-72
2023/09/10 03:31:43;;;;;;;6.63;4.57;;;;;;;15.56;100.00;100820.03;5196257;28;20025;-73
2023/09/10 03:34:13;;;;;;;9.68;4.72;;;;;;;15.44;100.00;100821.50;5198493;28;20033;-72
2023/09/10 03:36:44;;;;;;;13.27;5.63;;;;;;;15.44;100.00;100821.50;5196811;28;20049;-72
2023/09/10 03:39:14;;;;;;;8.52;5.15;;;;;;;15.54;100.00;100817.44;5198347;28;20028;-72
2023/09/10 03:41:45;;;;;;;7.50;5.28;;;;;;;15.63;100.00;100816.13;5196326;28;20079;-72
2023/09/10 03:44:15;;;;;;;9.00;5.57;;;;;;;15.61;100.00;100818.84;5182277;28;20431;-71
2023/09/10 03:46:46;;;;;;;8.55;5.03;;;;;;;15.57;100.00;100822.56;5196087;28;20029;-72
2023/09/10 03:49:16;;;;;;;6.15;4.25;;;;;;;15.70;100.00;100823.63;5198244;28;20025;-72
2023/09/10 03:51:49;;;;;;;10.15;4.85;;;;;;;15.60;100.00;100817.16;5196523;28;21219;-72
2023/09/10 03:54:19;;;;;;;6.82;4.55;;;;;;;15.59;100.00;100820.72;5180805;28;20214;-71
2023/09/10 03:56:49;;;;;;;8.77;4.32;;;;;;;15.50;100.00;100815.91;5195000;28;20492;-72
2023/09/10 03:59:20;;;;;;;8.98;4.97;;;;;;;15.19;100.00;100828.91;5197374;28;20071;-72
2023/09/10 04:01:50;;;;;;;6.80;4.60;;;;;;;15.03;100.00;100827.97;5196318;28;20064;-72
2023/09/10 04:04:20;;;;;;;7.57;4.10;;;;;;;15.20;100.00;100827.97;5180160;28;20113;-71
2023/09/10 04:06:51;;;;;;;9.13;5.15;;;;;;;15.15;100.00;100830.00;5193733;28;20026;-72
2023/09/10 04:09:21;;;;;;;8.30;4.47;;;;;;;15.05;100.00;100827.91;5179212;28;20075;-72
2023/09/10 04:11:51;;;;;;;7.78;4.30;;;;;;;15.06;100.00;100827.84;5196276;28;20022;-72
2023/09/10 04:14:22;;;;;;;9.13;4.10;;;;;;;15.13;100.00;100826.59;5179072;28;20080;-72
2023/09/10 04:16:52;;;;;;;10.35;4.20;;;;;;;14.87;100.00;100829.66;5178268;28;20048;-72
2023/09/10 04:19:23;;;;;;;8.55;4.50;;;;;;;14.94;100.00;100831.06;5178404;28;20113;-70
2023/09/10 04:21:53;;;;;;;7.63;3.95;;;;;;;14.85;100.00;100830.66;5195562;28;20025;-72
2023/09/10 04:24:24;;;;;;;6.50;3.72;;;;;;;14.97;100.00;100827.41;5178558;28;20026;-71
2023/09/10 04:26:54;;;;;;;7.82;4.18;;;;;;;15.03;100.00;100825.34;5196576;28;20021;-72
2023/09/10 04:29:25;;;;;;;5.50;3.50;;;;;;;14.92;100.00;100832.94;5196487;28;20021;-70
2023/09/10 04:31:56;;;;;;;7.63;4.18;;;;;;;14.93;100.00;100833.75;5178385;28;20083;-72
2023/09/10 04:34:27;;;;;;;8.23;4.18;;;;;;;15.01;100.00;100835.09;5178194;28;20044;-72
2023/09/10 04:36:57;;;;;;;7.35;4.38;;;;;;;15.08;100.00;100833.00;5196379;28;20415;-72
2023/09/10 04:39:27;;;;;;;8.82;5.03;;;;;;;15.04;100.00;100834.94;5196148;28;20057;-70
2023/09/10 04:41:58;;;;;;;7.05;5.00;;;;;;;14.93;100.00;100839.03;5195969;28;20108;-72
2023/09/10 04:44:28;;;;;;;8.43;4.70;;;;;;;14.97;100.00;100844.06;5196059;28;20024;-71
2023/09/10 04:46:58;;;;;;;7.07;4.55;;;;;;;15.00;100.00;100835.19;5197179;28;20069;-72
2023/09/10 04:49:29;;;;;;;9.70;5.05;;;;;;;14.90;100.00;100842.69;5195591;28;20030;-71
2023/09/10 04:51:59;;;;;;;7.47;4.45;;;;;;;15.06;100.00;100845.41;5197913;28;20021;-72
2023/09/10 04:54:30;;;;;;;8.23;4.97;;;;;;;14.91;100.00;100847.00;5178531;28;20148;-72
2023/09/10 04:57:00;;;;;;;8.98;5.07;;;;;;;15.01;100.00;100848.25;5180016;28;20036;-72
2023/09/10 04:59:32;;;;;;;10.73;5.05;;;;;;;14.97;100.00;100846.69;5178585;28;20044;-72
2023/09/10 05:02:04;;;;;;;7.57;4.50;;;;;;;14.92;100.00;100848.72;5197115;28;20475;-71
2023/09/10 05:04:34;;;;;;;7.60;5.00;;;;;;;14.94;100.00;100852.13;5196741;28;20129;-72
2023/09/10 05:07:05;;;;;;;8.82;4.63;;;;;;;15.06;100.00;100853.28;5180162;28;20148;-72
2023/09/10 05:09:35;;;;;;;7.88;4.78;;;;;;;15.14;100.00;100853.75;5178390;28;20030;-72
2023/09/10 05:12:06;;;;;;;8.07;4.78;;;;;;;15.16;100.00;100857.19;5196841;28;20021;-72
2023/09/10 05:14:36;;;;;;;8.02;4.57;;;;;;;15.19;100.00;100862.31;5196856;28;20035;-72
2023/09/10 05:17:06;;;;;;;8.23;5.10;;;;;;;15.43;100.00;100854.06;5197100;28;20080;-72
2023/09/10 05:19:37;;;;;;;7.57;4.50;;;;;;;15.35;100.00;100863.28;5192563;28;20100;-72
2023/09/10 05:22:07;;;;;;;7.38;4.57;;;;;;;15.54;100.00;100853.50;5196894;28;20038;-72
2023/09/10 05:24:37;;;;;;;11.40;4.38;;;;;;;15.36;100.00;100857.91;5178199;28;20025;-72
2023/09/10 05:27:07;;;;;;;6.47;4.55;;;;;;;15.32;100.00;100866.06;5197244;28;20045;-72
2023/09/10 05:29:38;;;;;;;8.05;4.53;;;;;;;15.44;100.00;100866.28;5195540;28;20059;-72
2023/09/10 05:32:08;;;;;;;6.80;3.97;;;;;;;15.50;100.00;100865.97;5178943;28;20018;-72
2023/09/10 05:34:38;;;;;;;6.07;4.10;;;;;;;15.66;100.00;100874.81;5194370;28;20022;-71
2023/09/10 05:37:09;;;;;;;7.97;4.15;;;;;;;15.79;100.00;100873.25;5196535;28;20120;-72
2023/09/10 05:39:40;;;;;;;6.72;4.90;;;;;;;15.76;100.00;100875.19;5195768;28;20156;-71
2023/09/10 05:42:10;;;;;;;7.93;4.28;;;;;;;15.95;100.00;100871.50;5180929;28;20021;-72
2023/09/10 05:44:40;;;;;;;9.68;4.63;;;;;;;16.01;100.00;100878.25;5196216;28;20323;-71
2023/09/10 05:47:10;;;;;;;6.28;4.25;;;;;;;16.20;100.00;100876.34;5201174;28;20510;-72
2023/09/10 05:49:41;;;;;;;7.78;4.75;;;;;;;16.26;100.00;100876.84;5181730;28;20120;-72
2023/09/10 05:52:11;;;;;;;8.10;5.10;;;;;;;16.25;100.00;100879.56;5200275;28;20449;-72
2023/09/10 05:54:41;;;;;;;7.50;4.70;;;;;;;16.31;100.00;100874.81;5181613;28;20029;-72
2023/09/10 05:57:12;;;;;;;9.98;4.40;;;;;;;16.45;100.00;100882.88;5201236;28;20025;-72
2023/09/10 05:59:42;;;;;;;9.88;4.65;;;;;;;16.60;100.00;100881.16;5199459;28;20136;-72
2023/09/10 06:02:12;;;;;;;6.28;4.22;;;;;;;16.75;100.00;100885.59;5182599;28;20227;-72
2023/09/10 06:04:43;;;;;;;7.07;4.68;;;;;;;16.77;100.00;100887.22;5198725;28;20071;-72
2023/09/10 06:07:13;;;;;;;7.18;4.80;;;;;;;16.91;100.00;100885.50;5202410;28;20026;-72
2023/09/10 06:09:43;;;;;;;7.45;4.82;;;;;;;16.95;100.00;100888.84;5202436;28;20033;-72
2023/09/10 06:12:14;;;;;;;6.60;4.50;;;;;;;17.04;100.00;100886.53;5201384;28;20025;-72
2023/09/10 06:14:44;;;;;;;6.32;4.38;;;;;;;17.22;100.00;100893.38;5199104;28;20021;-72
2023/09/10 06:17:14;;;;;;;7.57;4.65;;;;;;;17.31;100.00;100881.44;5200207;28;20035;-73
2023/09/10 06:19:47;;;;;;;7.38;4.63;;;;;;;17.52;100.00;100886.31;5164470;28;20025;-72
2023/09/10 06:22:18;;;;;;;7.15;4.60;;;;;;;17.47;100.00;100893.69;5200080;28;20031;-72
2023/09/10 06:24:48;;;;;;;7.28;4.70;;;;;;;17.56;100.00;100895.81;5197646;28;20428;-72
2023/09/10 06:27:18;;;;;;;10.10;4.93;;;;;;;17.73;100.00;100892.16;5199848;28;20124;-72
2023/09/10 06:29:49;;;;;;;9.73;5.03;;;;;;;17.62;100.00;100903.38;5198092;28;20021;-71
2023/09/10 06:32:19;;;;;;;7.38;4.68;;;;;;;17.91;100.00;100901.63;5199252;28;20116;-72
2023/09/10 06:34:49;;;;;;;7.70;4.65;;;;;;;18.04;100.00;100900.78;5198688;28;20021;-72
2023/09/10 06:37:20;;;;;;;7.88;4.75;;;;;;;18.12;100.00;100902.94;5199929;28;20025;-72
2023/09/10 06:39:50;;;;;;;9.48;4.68;;;;;;;18.56;100.00;100901.97;5198372;28;20021;-72
2023/09/10 06:42:21;;;;;;;7.60;4.70;;;;;;;18.54;100.00;100895.88;5201023;28;20100;-72
2023/09/10 06:44:51;;;;;;;7.35;4.50;;;;;;;18.60;100.00;100899.94;5236012;22;20137;-74
2023/09/10 06:47:21;;;;;;;5.97;4.30;;;;;;;18.61;100.00;100896.34;5223776;28;20182;-76
2023/09/10 06:49:51;;;;;;;8.25;4.63;;;;;;;18.84;100.00;100904.53;5227133;28;20051;-72
2023/09/10 06:52:22;;;;;;;6.55;4.47;;;;;;;18.88;100.00;100898.94;5208704;28;20031;-73
2023/09/10 06:54:52;;;;;;;8.83;4.30;;;;;;;19.10;100.00;100891.31;5225231;28;20020;-73
2023/09/10 06:57:22;;;;;;;7.40;4.40;;;;;;;20.19;100.00;100890.91;5208662;28;20283;-73
2023/09/10 06:59:52;;;;;;;6.43;4.13;;;;;;;22.28;100.00;100884.81;5221964;28;20029;-73
2023/09/10 07:02:25;;;;;;;6.45;3.65;;;;;;;23.91;90.89;100886.34;5220175;28;20310;-73
2023/09/10 07:04:55;;;;;;;4.68;3.10;;;;;;;25.72;78.76;100880.53;5219194;28;20016;-74
2023/09/10 07:07:25;;;;;;;7.03;3.60;;;;;;;26.58;71.34;100875.78;5225163;28;20504;-74
2023/09/10 07:09:56;;;;;;;6.40;3.20;;;;;;;27.58;71.47;100879.91;5223484;28;20043;-74
2023/09/10 07:12:26;;;;;;;7.67;4.00;;;;;;;27.42;68.08;100887.81;5221364;28;20033;-75
2023/09/10 07:14:56;;;;;;;6.43;3.95;;;;;;;27.87;66.29;100888.59;5221671;28;20291;-74
2023/09/10 07:17:26;;;;;;;9.00;4.87;;;;;;;27.81;67.42;100891.06;5223605;28;20032;-74
2023/09/10 07:19:57;;;;;;;6.87;4.50;;;;;;;29.12;67.47;100876.97;5203690;28;20280;-74
2023/09/10 07:22:27;;;;;;;6.73;4.60;;;;;;;29.87;65.90;100873.97;5224263;28;20736;-74
2023/09/10 07:24:57;;;;;;;9.53;6.40;;;;;;;28.73;68.52;100885.75;5203887;28;20268;-73
2023/09/10 07:27:28;;;;;;;11.87;7.13;;;;;;;30.35;64.79;100879.31;5222993;28;20035;-71
2023/09/10 07:29:58;;;;;;;10.40;7.50;;;;;;;29.83;67.09;100880.75;5220364;28;20640;-74
2023/09/10 07:32:28;;;;;;;13.47;9.60;;;;;;;29.57;64.66;100876.53;5218327;28;20029;-71
2023/09/10 07:34:59;;;;;;;12.30;8.43;;;;;;;30.22;64.70;100875.47;5223926;28;20087;-73
2023/09/10 07:37:29;;;;;;;19.13;11.15;;;;;;;28.60;69.56;100879.09;5224299;28;20275;-72
2023/09/10 07:39:59;;;;;;;15.47;10.67;;;;;;;29.29;68.30;100876.00;5218204;28;20986;-73
2023/09/10 07:42:29;;;;;;;12.00;8.93;;;;;;;29.95;66.73;100879.34;5218595;28;20366;-73
2023/09/10 07:45:00;;;;;;;12.57;8.27;;;;;;;31.01;65.08;100888.66;5220778;28;20033;-73
2023/09/10 07:47:30;;;;;;;14.33;8.07;;;;;;;30.84;62.77;100881.66;5223181;28;20286;-73
2023/09/10 07:50:01;;;;;;;9.25;7.53;;;;;;;30.94;63.53;100887.69;5204092;28;20055;-73
2023/09/10 07:52:31;;;;;;;13.47;10.67;;;;;;;30.30;66.14;100881.69;5203854;28;20520;-72
2023/09/10 07:55:02;;;;;;;10.30;7.43;;;;;;;31.78;62.88;100877.69;5220057;28;20083;-73
2023/09/10 07:57:33;;;;;;;13.70;9.38;;;;;;;32.00;62.62;100882.19;5219129;28;20315;-73
2023/09/10 08:00:03;;;;;;;12.87;8.00;;;;;;;32.30;59.89;100886.66;5219138;28;20047;-73
2023/09/10 08:02:34;;;;;;;7.80;5.90;;;;;;;32.53;62.41;100884.69;5203795;28;20135;-71
2023/09/10 08:05:08;;;;;;;13.48;8.45;;;;;;;31.71;63.14;100886.72;5216870;28;20025;-72
2023/09/10 08:07:39;;;;;;;12.93;7.53;;;;;;;31.98;62.57;100889.66;5220630;28;20021;-73
2023/09/10 08:10:09;;;;;;;11.40;8.83;;;;;;;31.88;62.06;100885.53;5219811;28;20025;-73
2023/09/10 08:12:39;;;;;;;10.30;8.20;;;;;;;32.08;60.89;100890.22;5204462;28;20529;-73
2023/09/10 08:15:10;;;;;;;12.27;8.57;;;;;;;32.05;62.30;100885.19;5221790;28;20283;-71
2023/09/10 08:17:40;;;;;;;10.82;8.80;;;;;;;30.94;64.59;100897.63;5206398;28;20024;-71
2023/09/10 08:20:11;;;;;;;14.63;8.80;;;;;;;31.99;62.96;100883.22;5215982;28;20488;-71
2023/09/10 08:22:43;;;;;;;7.57;5.85;;;;;;;33.57;59.01;100881.38;5219826;28;20290;-71
2023/09/10 08:25:13;;;;;;;8.75;7.20;;;;;;;32.51;60.36;100892.16;5209191;28;20025;-73
2023/09/10 08:27:44;;;;;;;6.63;5.50;;;;;;;33.88;59.96;100883.75;5206159;28;20501;-71
2023/09/10 08:30:14;;;;;;;8.48;7.13;;;;;;;32.12;62.71;100888.84;5205068;28;20032;-71
2023/09/10 08:32:47;;;;;;;14.07;7.00;;;;;;;33.50;60.46;100887.78;5212677;28;20402;-71
2023/09/10 08:35:22;;;;;;;11.95;6.60;;;;;;;34.27;58.46;100884.06;5211256;28;20664;-73
2023/09/10 08:37:52;;;;;;;;;;;;;;;34.65;57.86;100882.63;5210253;28;20056;-73
2023/09/10 08:40:24;;;;;;;9.83;6.77;;;;;;;33.36;59.75;100877.81;5216281;28;19912;-73
2023/09/10 08:43:02;;;;;;;9.77;7.25;;;;;;;32.98;58.83;100887.19;5212096;28;20041;-73
2023/09/10 08:45:33;;;;;;;9.18;6.85;;;;;;;33.24;58.68;100892.91;5213383;28;20040;-71
2023/09/10 08:48:04;;;;;;;7.80;5.70;;;;;;;34.38;56.80;100880.78;5214549;28;20024;-72
2023/09/10 08:50:36;;;;;;;8.27;6.82;;;;;;;33.38;59.82;100884.75;5207216;28;20028;-73
2023/09/10 08:53:07;;;;;;;7.38;6.22;;;;;;;34.30;58.09;100883.66;5213733;28;20268;-72
2023/09/10 08:55:38;;;;;;;14.43;7.93;;;;;;;33.09;59.45;100892.94;5215970;28;20027;-73
2023/09/10 08:58:11;;;;;;;9.23;6.57;;;;;;;32.96;60.68;100889.25;5212513;28;20029;-73
2023/09/10 09:00:43;;;;;;;8.38;6.20;;;;;;;34.02;59.27;100882.81;5204772;28;20029;-71
2023/09/10 09:03:14;;;;;;;8.70;5.88;;;;;;;34.36;57.94;100882.88;5211834;28;20035;-71
2023/09/10 09:05:48;;;;;;;7.63;6.30;;;;;;;33.10;59.39;100891.03;5217418;28;20094;-73
2023/09/10 09:08:23;;;;;;;7.30;4.78;;;;;;;34.78;56.90;100888.97;5215548;28;20021;-73
2023/09/10 09:10:54;;;;;;;6.30;4.82;;;;;;;35.96;55.02;100888.22;5181398;28;20052;-73
2023/09/10 09:13:25;;;;;;;7.75;5.25;;;;;;;34.84;56.79;100892.78;5216175;28;20398;-72
2023/09/10 09:15:57;;;;;;;8.38;6.57;;;;;;;34.44;58.13;100885.41;5213488;28;20449;-73
2023/09/10 09:18:29;;;;;;;6.72;5.05;;;;;;;34.85;57.70;100883.56;5213743;28;20074;-71
2023/09/10 09:21:05;;;;;;;10.25;6.53;;;;;;;34.77;56.56;100883.72;5206829;28;20041;-72
2023/09/10 09:23:59;;;;;;;7.40;5.15;;;;;;;33.16;60.51;100882.16;5220267;28;20078;-73
2023/09/10 09:26:30;;;;;;;8.32;6.22;;;;;;;31.95;61.94;100890.03;5218033;28;20487;-71
2023/09/10 09:29:00;;;;;;;8.88;6.07;;;;;;;31.18;65.12;100895.69;5218892;28;20037;-73
2023/09/10 09:31:31;;;;;;;8.77;6.45;;;;;;;31.37;64.07;100884.41;5192366;28;20039;-73
2023/09/10 09:34:02;;;;;;;8.03;5.50;;;;;;;30.96;65.81;100884.78;5213865;28;20060;-72
2023/09/10 09:36:36;;;;;;;12.32;6.57;;;;;;;30.25;66.59;100889.44;5217469;28;20295;-72
2023/09/10 09:39:11;;;;;;;9.18;6.60;;;;;;;30.08;68.59;100887.81;5218766;28;20032;-74
2023/09/10 09:41:42;;;;;;;9.27;6.70;;;;;;;30.31;69.65;100888.78;5188631;28;20721;-72
2023/09/10 09:44:12;;;;;;;13.00;6.83;;;;;;;29.87;69.20;100884.78;5209777;28;20377;-74
2023/09/10 09:46:43;;;;;;;9.65;7.18;;;;;;;29.69;68.40;100883.25;5217832;28;20294;-73
2023/09/10 09:49:14;;;;;;;10.52;6.68;;;;;;;29.32;71.60;100883.72;5220054;28;20044;-75
2023/09/10 09:51:44;;;;;;;10.63;6.63;;;;;;;29.40;70.89;100880.22;5209933;28;20166;-72
2023/09/10 09:54:14;;;;;;;11.73;6.78;;;;;;;29.30;70.83;100884.91;5217570;28;20024;-74
2023/09/10 09:56:46;;;;;;;10.37;6.20;;;;;;;29.42;71.33;100879.00;5213502;28;20052;-72
2023/09/10 09:59:16;;;;;;;8.93;5.78;;;;;;;29.08;72.45;100874.75;5211589;28;20280;-74
2023/09/10 10:01:46;;;;;;;9.27;6.00;;;;;;;29.11;71.88;100872.59;5217070;28;20094;-75
2023/09/10 10:04:18;;;;;;;8.57;6.55;;;;;;;28.77;75.20;100879.00;5219001;28;20077;-75
2023/09/10 10:06:49;;;;;;;13.18;6.40;;;;;;;28.80;74.54;100870.59;5220291;28;20399;-72
2023/09/10 10:09:22;;;;;;;8.55;6.10;;;;;;;28.93;72.32;100873.72;5221134;28;20021;-73
2023/09/10 10:11:53;;;;;;;9.07;5.95;;;;;;;29.03;73.78;100869.03;5199570;28;20501;-73
2023/09/10 10:14:23;;;;;;;8.93;6.13;;;;;;;29.03;74.22;100863.66;5188183;28;20024;-71
2023/09/10 10:16:54;;;;;;;9.25;6.07;;;;;;;28.81;73.61;100861.53;5214998;28;20098;-73
2023/09/10 10:19:27;;;;;;;10.05;6.47;;;;;;;28.91;73.69;100859.59;5201136;28;20021;-71
2023/09/10 10:21:58;;;;;;;11.15;6.57;;;;;;;28.66;72.99;100867.72;5191620;28;20113;-71
2023/09/10 10:24:29;;;;;;;10.50;6.88;;;;;;;28.39;74.28;100870.59;5200683;28;20110;-71
2023/09/10 10:27:01;;;;;;;9.30;6.35;;;;;;;28.35;74.26;100862.03;5217969;28;20044;-73
2023/09/10 10:29:32;;;;;;;8.40;6.13;;;;;;;28.32;74.68;100859.63;5207187;28;20548;-73
2023/09/10 10:32:12;;;;;;;11.15;6.43;;;;;;;28.39;74.21;100859.84;5215768;28;20086;-73
2023/09/10 10:34:52;;;;;;;8.10;5.63;;;;;;;28.37;75.65;100860.03;5217923;28;20048;-71
2023/09/10 10:37:44;;;;;;;12.80;7.85;;;;;;;28.28;74.59;100863.63;5217383;28;20041;-73
2023/09/10 10:40:42;;;;;;;10.80;6.85;;;;;;;28.15;76.13;100857.00;5213911;28;20390;-73
2023/09/10 10:43:26;;;;;;;12.35;6.97;;;;;;;28.11;75.61;100853.78;5195519;28;20554;-73
2023/09/10 10:45:57;;;;;;;9.48;6.70;;;;;;;28.17;77.38;100845.06;5217344;28;20036;-72
2023/09/10 10:48:31;;;;;;;10.25;7.18;;;;;;;28.19;76.21;100847.59;5218926;28;20045;-73
2023/09/10 10:51:02;;;;;;;9.85;6.70;;;;;;;28.28;76.24;100844.81;5219558;28;20029;-73
2023/09/10 10:53:34;;;;;;;12.25;6.18;;;;;;;28.25;76.99;100839.75;5217865;28;20045;-71
2023/09/10 10:56:05;;;;;;;11.00;6.80;;;;;;;28.32;76.12;100834.59;5201506;28;20029;-72
2023/09/10 10:58:40;;;;;;;17.05;6.60;;;;;;;28.34;76.13;100835.28;5217085;28;20045;-72
2023/09/10 11:01:11;;;;;;;27.10;17.58;;;;;;;28.28;77.54;100831.34;5206874;28;20036;-73
2023/09/10 11:03:44;;;;;;;11.02;7.22;;;;;;;28.22;77.47;100837.38;5201666;28;20401;-71
2023/09/10 11:06:15;;;;;;;9.68;6.28;;;;;;;28.18;77.17;100833.34;5210947;28;20028;-71
2023/09/10 11:08:46;;;;;;;8.02;5.80;;;;;;;28.30;77.62;100837.41;5212112;28;20037;-73
2023/09/10 11:11:34;;;;;;;9.48;7.10;;;;;;;28.12;76.01;100828.59;5214938;28;20029;-71
2023/09/10 11:14:08;;;;;;;12.07;8.90;;;;;;;28.13;76.32;100832.94;5213200;28;20570;-73
2023/09/10 11:16:42;;;;;;;23.58;14.65;;;;;;;28.20;78.08;100823.25;5189637;28;20029;-73
2023/09/10 11:19:43;;;;;;;14.98;7.38;;;;;;;28.21;76.04;100818.72;5191087;28;20124;-72
2023/09/10 11:22:14;;;;;;;12.18;6.95;;;;;;;28.08;75.67;100818.31;5186157;28;20036;-71
2023/09/10 11:25:06;;;;;;;9.40;6.45;;;;;;;28.13;77.36;100816.81;5213651;28;20033;-72
2023/09/10 11:27:36;;;;;;;17.63;9.68;;;;;;;28.05;78.94;100814.09;5217835;28;20036;-73
2023/09/10 11:30:14;;;;;;;25.30;15.10;;;;;;;28.03;77.67;100805.38;5215907;28;20049;-73
2023/09/10 11:32:44;;;;;;;10.07;7.07;;;;;;;28.05;77.15;100814.09;5216277;28;20448;-72
2023/09/10 11:35:17;;;;;;;12.20;6.28;;;;;;;27.96;76.86;100809.66;5214158;28;20041;-73
2023/09/10 11:37:50;;;;;;;10.30;6.63;;;;;;;27.87;77.33;100805.28;5215020;28;20037;-73